Time;durP1;ratioP1;P1;durP2;ratioP2;P2;SDS_P1;SDS_P2;PMS_P1;PMS_P2;Temp;Humidity;BMP_temperature;BMP_pressure;BME280_temperature;BME280_humidity;BME280_pressure;Samples;Min_cycle;Max_cycle;Signal;HPM_P1;HPM_P2
2023/11/21 00:00:35;;;;;;;1068.83;825.53;;;7.40;99.90;;;;;;6155464;23;20417;-73
2023/11/21 00:03:04;;;;;;;1072.00;832.00;;;7.40;99.90;;;;;;6155613;23;20450;-73
2023/11/21 00:05:31;;;;;;;1081.97;831.40;;;7.40;99.90;;;;;;6155905;23;20887;-73
2023/11/21 00:07:58;;;;;;;1095.60;841.17;;;7.50;99.90;;;;;;6155444;23;20412;-73
2023/11/21 00:10:25;;;;;;;1081.67;835.40;;;7.60;99.90;;;;;;6155612;23;20436;-73
2023/11/21 00:12:54;;;;;;;1097.13;838.10;;;7.70;99.90;;;;;;6155545;23;20763;-72
2023/11/21 00:15:21;;;;;;;1102.53;845.10;;;7.80;99.90;;;;;;6155412;23;20412;-73
2023/11/21 00:17:48;;;;;;;1095.83;837.30;;;7.80;99.90;;;;;;6155354;23;20423;-73
2023/11/21 00:20:16;;;;;;;1094.93;856.83;;;7.80;99.90;;;;;;6155256;23;20451;-73
2023/11/21 00:22:43;;;;;;;1118.83;869.67;;;7.70;99.90;;;;;;6155682;23;20495;-73
2023/11/21 00:25:10;;;;;;;1112.57;864.77;;;7.70;99.90;;;;;;6155619;23;20410;-73
2023/11/21 00:27:37;;;;;;;1100.97;839.30;;;7.60;99.90;;;;;;6155720;23;20414;-73
2023/11/21 00:30:06;;;;;;;1103.47;835.40;;;7.50;99.90;;;;;;6155076;23;20990;-73
2023/11/21 00:32:33;;;;;;;1106.33;833.90;;;7.50;99.90;;;;;;6155528;23;20439;-73
2023/11/21 00:35:00;;;;;;;1088.73;835.67;;;7.40;99.90;;;;;;6155435;23;20439;-73
2023/11/21 00:37:28;;;;;;;1086.83;840.40;;;7.30;99.90;;;;;;6155589;23;20449;-73
2023/11/21 00:39:56;;;;;;;1086.13;835.73;;;7.30;99.90;;;;;;6155377;23;20497;-73
2023/11/21 00:42:23;;;;;;;1083.47;838.40;;;7.20;99.90;;;;;;6155534;23;20408;-73
2023/11/21 00:44:50;;;;;;;1069.83;836.70;;;7.30;99.90;;;;;;6155480;23;20499;-73
2023/11/21 00:47:17;;;;;;;1072.10;847.13;;;7.30;99.90;;;;;;6155056;23;20445;-73
2023/11/21 00:49:44;;;;;;;1066.33;848.93;;;7.40;99.90;;;;;;6155138;23;20489;-73
2023/11/21 00:52:11;;;;;;;1070.07;846.80;;;7.40;99.90;;;;;;6155014;23;20492;-73
2023/11/21 00:54:39;;;;;;;1087.47;870.23;;;7.40;99.90;;;;;;6155456;23;20500;-73
2023/11/21 00:57:08;;;;;;;1082.80;855.90;;;7.40;99.90;;;;;;6155544;23;20742;-73
2023/11/21 00:59:35;;;;;;;1075.67;850.27;;;7.40;99.90;;;;;;6154669;23;20454;-73
2023/11/21 01:02:02;;;;;;;1076.13;866.90;;;7.50;99.90;;;;;;6154803;23;20880;-73
2023/11/21 01:04:29;;;;;;;1097.50;860.60;;;7.40;99.90;;;;;;6155236;23;20415;-73
2023/11/21 01:06:55;;;;;;;1091.53;858.43;;;7.40;99.90;;;;;;6155393;23;20442;-73
2023/11/21 01:09:23;;;;;;;1091.13;860.40;;;7.30;99.90;;;;;;6154876;23;20966;-73
2023/11/21 01:11:51;;;;;;;1100.77;853.77;;;7.20;99.90;;;;;;6155255;23;20805;-73
2023/11/21 01:14:19;;;;;;;1104.10;854.73;;;7.10;99.90;;;;;;6155269;23;20413;-73
2023/11/21 01:16:45;;;;;;;1106.43;863.10;;;6.90;99.90;;;;;;6155262;23;20493;-73
2023/11/21 01:19:12;;;;;;;1100.53;858.73;;;6.80;99.90;;;;;;6154982;23;20498;-73
2023/11/21 01:21:39;;;;;;;1109.30;849.63;;;6.70;99.90;;;;;;6155229;23;20410;-73
2023/11/21 01:24:07;;;;;;;1114.03;858.03;;;6.60;99.90;;;;;;6154965;23;20473;-73
2023/11/21 01:26:34;;;;;;;1122.83;868.27;;;6.60;99.90;;;;;;6154755;23;20493;-73
2023/11/21 01:29:02;;;;;;;1143.77;865.20;;;6.50;99.90;;;;;;6154866;23;20439;-73
2023/11/21 01:31:29;;;;;;;1150.30;879.87;;;6.50;99.90;;;;;;6154934;23;20517;-73
2023/11/21 01:33:56;;;;;;;1161.67;873.87;;;6.40;99.90;;;;;;6154735;23;20446;-73
2023/11/21 01:36:23;;;;;;;1169.93;871.17;;;6.30;99.90;;;;;;6155072;23;20414;-73
2023/11/21 01:38:49;;;;;;;1178.53;880.93;;;6.20;99.90;;;;;;6154534;23;20473;-73
2023/11/21 01:41:16;;;;;;;1177.60;890.20;;;6.20;99.90;;;;;;6154785;23;20446;-73
2023/11/21 01:43:43;;;;;;;1180.63;883.43;;;6.20;99.90;;;;;;6154643;23;20174;-73
2023/11/21 01:46:11;;;;;;;1197.33;873.80;;;6.30;99.90;;;;;;6154517;23;20915;-73
2023/11/21 01:48:38;;;;;;;1193.43;862.40;;;6.40;99.90;;;;;;6154473;23;20492;-73
2023/11/21 01:51:05;;;;;;;1200.47;871.83;;;6.50;99.90;;;;;;6154539;23;20441;-73
2023/11/21 01:53:32;;;;;;;1190.23;869.87;;;6.50;99.90;;;;;;6155345;23;20418;-73
2023/11/21 01:55:59;;;;;;;1187.50;875.63;;;6.50;99.90;;;;;;6154540;23;20428;-73
2023/11/21 01:58:26;;;;;;;1190.20;878.40;;;6.40;99.90;;;;;;6154327;23;20457;-73
2023/11/21 02:00:54;;;;;;;1184.90;876.30;;;6.40;99.90;;;;;;6154496;23;20429;-73
2023/11/21 02:03:23;;;;;;;1193.03;887.23;;;6.40;99.90;;;;;;6154988;23;20416;-73
2023/11/21 02:05:50;;;;;;;1201.97;889.90;;;6.50;99.90;;;;;;6154873;23;20493;-73
2023/11/21 02:08:17;;;;;;;1203.57;898.40;;;6.60;99.90;;;;;;6154806;23;20416;-73
2023/11/21 02:10:44;;;;;;;1205.87;884.47;;;6.70;99.90;;;;;;6155717;23;20414;-73
2023/11/21 02:13:10;;;;;;;1197.47;895.10;;;6.70;99.90;;;;;;6156910;23;20438;-73
2023/11/21 02:15:38;;;;;;;1200.30;878.67;;;6.80;99.90;;;;;;6156624;23;20707;-73
2023/11/21 02:18:05;;;;;;;1191.60;876.27;;;6.80;99.90;;;;;;6156863;23;20409;-73
2023/11/21 02:20:34;;;;;;;1195.80;886.47;;;6.90;99.90;;;;;;6156764;23;20417;-73
2023/11/21 02:23:03;;;;;;;1200.27;883.23;;;6.90;99.90;;;;;;6156886;23;20805;-73
2023/11/21 02:25:31;;;;;;;1202.87;884.67;;;7.00;99.90;;;;;;6156648;23;20496;-73
2023/11/21 02:27:59;;;;;;;1211.50;886.07;;;7.00;99.90;;;;;;6157185;23;20489;-73
2023/11/21 02:30:27;;;;;;;1203.17;890.87;;;7.10;99.90;;;;;;6156666;23;20443;-73
2023/11/21 02:32:56;;;;;;;1187.23;877.00;;;7.10;99.90;;;;;;6156340;23;20445;-73
2023/11/21 02:35:25;;;;;;;1190.13;886.57;;;7.20;99.90;;;;;;6156689;23;20448;-73
2023/11/21 02:37:52;;;;;;;1199.43;877.07;;;7.20;99.90;;;;;;6156628;23;20414;-73
2023/11/21 02:40:21;;;;;;;1197.87;884.77;;;7.20;99.90;;;;;;6156540;23;20492;-73
2023/11/21 02:42:48;;;;;;;1206.13;892.13;;;7.30;99.90;;;;;;6156685;23;20412;-73
2023/11/21 02:45:16;;;;;;;1215.67;900.33;;;7.30;99.90;;;;;;6156215;23;20979;-73
2023/11/21 02:47:43;;;;;;;1199.83;884.77;;;7.40;99.90;;;;;;6156185;23;20420;-73
2023/11/21 02:50:11;;;;;;;1229.33;901.47;;;7.40;99.90;;;;;;6156413;23;20451;-73
2023/11/21 02:52:38;;;;;;;1236.73;896.57;;;7.50;99.90;;;;;;6156465;23;20490;-73
2023/11/21 02:55:07;;;;;;;1228.40;900.97;;;7.50;99.90;;;;;;6156012;23;20417;-73
2023/11/21 02:57:35;;;;;;;1228.03;886.53;;;7.60;99.90;;;;;;6156877;23;20464;-73
2023/11/21 03:00:02;;;;;;;1238.80;891.43;;;7.60;99.90;;;;;;6156287;23;20497;-73
2023/11/21 03:02:29;;;;;;;1228.20;890.53;;;7.60;99.90;;;;;;6156249;23;20408;-73
2023/11/21 03:04:56;;;;;;;1235.73;897.00;;;7.60;99.90;;;;;;6156322;23;20495;-73
2023/11/21 03:07:22;;;;;;;1232.43;894.90;;;7.60;99.90;;;;;;6156517;23;20494;-73
2023/11/21 03:09:50;;;;;;;1217.00;899.17;;;7.60;99.90;;;;;;6156194;23;20491;-73
2023/11/21 03:12:17;;;;;;;1219.83;909.07;;;7.60;99.90;;;;;;6156030;23;20439;-73
2023/11/21 03:14:45;;;;;;;1219.70;902.37;;;7.60;99.90;;;;;;6156292;23;20419;-73
2023/11/21 03:17:14;;;;;;;1220.87;903.37;;;7.60;99.90;;;;;;6155969;23;20418;-73
2023/11/21 03:19:42;;;;;;;1205.83;870.47;;;7.60;99.90;;;;;;6155562;23;20416;-73
2023/11/21 03:22:09;;;;;;;1215.37;866.80;;;7.60;99.90;;;;;;6155807;23;20935;-73
2023/11/21 03:24:37;;;;;;;1221.63;861.67;;;7.60;99.90;;;;;;6156191;23;20410;-73
2023/11/21 03:27:05;;;;;;;1214.37;857.73;;;7.60;99.90;;;;;;6155928;23;20416;-73
2023/11/21 03:29:32;;;;;;;1216.87;861.20;;;7.60;99.90;;;;;;6155644;23;20916;-73
2023/11/21 03:32:16;;;;;;;1217.90;852.60;;;7.60;99.90;;;;;;6155748;23;21029;-73
2023/11/21 03:34:56;;;;;;;1213.10;856.50;;;7.60;99.90;;;;;;6152931;23;20892;-73
2023/11/21 03:37:22;;;;;;;1215.93;855.20;;;7.70;99.90;;;;;;6156238;23;20399;-73
2023/11/21 03:39:49;;;;;;;1204.97;855.93;;;7.60;99.90;;;;;;6155576;23;20921;-73
2023/11/21 03:42:16;;;;;;;1199.70;847.50;;;7.60;99.90;;;;;;6156118;23;20436;-73
2023/11/21 03:44:44;;;;;;;1215.53;854.17;;;7.50;99.90;;;;;;6155979;23;20495;-73
2023/11/21 03:47:11;;;;;;;1202.73;851.50;;;7.50;99.90;;;;;;6155761;23;20496;-73
2023/11/21 03:49:39;;;;;;;1194.70;854.70;;;7.50;99.90;;;;;;6155493;23;20978;-73
2023/11/21 03:52:09;;;;;;;1171.73;846.43;;;7.50;99.90;;;;;;6155588;23;20967;-73
2023/11/21 03:54:36;;;;;;;1172.93;858.50;;;7.40;99.90;;;;;;6155734;23;20478;-73
2023/11/21 03:57:03;;;;;;;1178.20;844.00;;;7.50;99.90;;;;;;6156000;23;20401;-73
2023/11/21 03:59:30;;;;;;;1189.43;846.27;;;7.50;99.90;;;;;;6155604;23;20802;-73
2023/11/21 04:01:57;;;;;;;1181.53;840.00;;;7.50;99.90;;;;;;6155907;23;20438;-73
2023/11/21 04:04:24;;;;;;;1176.80;845.17;;;7.50;99.90;;;;;;6155431;23;20412;-73
2023/11/21 04:06:53;;;;;;;1172.53;842.80;;;7.50;99.90;;;;;;6155950;23;20414;-73
2023/11/21 04:09:20;;;;;;;1155.83;840.90;;;7.50;99.90;;;;;;6155737;23;20412;-73
2023/11/21 04:11:47;;;;;;;1148.83;839.60;;;7.50;99.90;;;;;;6155322;23;20481;-73
2023/11/21 04:14:14;;;;;;;1152.00;844.30;;;7.50;99.90;;;;;;6155734;23;20416;-73
2023/11/21 04:16:42;;;;;;;1186.43;844.40;;;7.50;99.90;;;;;;6155331;23;20449;-73
2023/11/21 04:19:10;;;;;;;1159.00;850.37;;;7.40;99.90;;;;;;6155592;23;20499;-73
2023/11/21 04:21:37;;;;;;;1165.97;841.60;;;7.50;99.90;;;;;;6155387;23;20444;-73
2023/11/21 04:24:06;;;;;;;1164.37;841.97;;;7.50;99.90;;;;;;6156089;23;20419;-73
2023/11/21 04:26:33;;;;;;;1161.00;837.77;;;7.50;99.90;;;;;;6155459;23;20480;-73
2023/11/21 04:29:00;;;;;;;1172.47;844.23;;;7.50;99.90;;;;;;6155815;23;20506;-73
2023/11/21 04:31:27;;;;;;;1181.60;846.57;;;7.50;99.90;;;;;;6155725;23;20491;-73
2023/11/21 04:33:54;;;;;;;1169.67;845.80;;;7.40;99.90;;;;;;6154720;23;20522;-73
2023/11/21 04:36:21;;;;;;;1182.93;849.53;;;7.50;99.90;;;;;;6155507;23;20420;-73
2023/11/21 04:38:47;;;;;;;1157.77;848.60;;;7.40;99.90;;;;;;6155415;23;20723;-73
2023/11/21 04:41:15;;;;;;;1165.97;846.23;;;7.50;99.90;;;;;;6155380;23;20495;-73
2023/11/21 04:43:42;;;;;;;1168.47;836.43;;;7.50;99.90;;;;;;6155190;23;20415;-73
2023/11/21 04:46:09;;;;;;;1167.73;840.80;;;7.40;99.90;;;;;;6155168;23;20902;-73
2023/11/21 04:48:36;;;;;;;1173.90;829.50;;;7.40;99.90;;;;;;6155345;23;20411;-72
2023/11/21 04:51:04;;;;;;;1168.17;838.27;;;7.40;99.90;;;;;;6155470;23;20800;-73
2023/11/21 04:53:31;;;;;;;1155.63;827.00;;;7.40;99.90;;;;;;6155333;23;20437;-73
2023/11/21 04:55:57;;;;;;;1160.40;825.00;;;7.50;99.90;;;;;;6154767;23;20463;-73
2023/11/21 04:58:26;;;;;;;1152.83;817.53;;;7.40;99.90;;;;;;6154978;23;20493;-73
2023/11/21 05:00:52;;;;;;;1148.27;821.23;;;7.50;99.90;;;;;;6155309;23;20488;-73
2023/11/21 05:03:20;;;;;;;1150.63;835.50;;;7.50;99.90;;;;;;6155362;23;20495;-73
2023/11/21 05:05:47;;;;;;;1137.93;827.47;;;7.50;99.90;;;;;;6154929;23;20412;-73
2023/11/21 05:08:14;;;;;;;1130.80;824.43;;;7.50;99.90;;;;;;6155257;23;20412;-73
2023/11/21 05:10:41;;;;;;;1128.43;830.30;;;7.40;99.90;;;;;;6155045;23;20442;-72
2023/11/21 05:13:10;;;;;;;1123.77;837.50;;;7.50;99.90;;;;;;6155193;23;20447;-73
2023/11/21 05:15:39;;;;;;;1126.90;843.03;;;7.50;99.90;;;;;;6155246;23;20410;-72
2023/11/21 05:18:06;;;;;;;1157.57;832.07;;;7.50;99.90;;;;;;6155167;23;20419;-72
2023/11/21 05:20:33;;;;;;;1138.60;821.70;;;7.50;99.90;;;;;;6155107;23;20742;-73
2023/11/21 05:23:00;;;;;;;1150.93;830.50;;;7.50;99.90;;;;;;6155425;23;20439;-73
2023/11/21 05:25:27;;;;;;;1140.40;816.23;;;7.50;99.90;;;;;;6154699;23;20501;-72
2023/11/21 05:27:54;;;;;;;1126.70;830.27;;;7.60;99.90;;;;;;6155175;23;20794;-72
2023/11/21 05:30:22;;;;;;;1125.83;810.53;;;7.50;99.90;;;;;;6154952;23;20499;-72
2023/11/21 05:32:51;;;;;;;1139.00;835.73;;;7.50;99.90;;;;;;6154794;23;21011;-72
2023/11/21 05:35:18;;;;;;;1121.97;825.70;;;7.50;99.90;;;;;;6155007;23;20491;-72
2023/11/21 05:37:45;;;;;;;1119.97;830.40;;;7.60;99.90;;;;;;6155034;23;20451;-72
2023/11/21 05:40:12;;;;;;;1122.00;842.30;;;7.60;99.90;;;;;;6154524;23;20417;-72
2023/11/21 05:42:40;;;;;;;1146.37;837.57;;;7.60;99.90;;;;;;6154707;23;20495;-72
2023/11/21 05:45:10;;;;;;;1126.77;837.83;;;7.60;99.90;;;;;;6154944;23;20497;-73
2023/11/21 05:47:39;;;;;;;1139.93;828.40;;;7.60;99.90;;;;;;6155178;23;20410;-72
2023/11/21 05:50:10;;;;;;;1120.30;834.33;;;7.60;99.90;;;;;;6154458;23;21002;-73
2023/11/21 05:52:37;;;;;;;1154.57;839.33;;;7.50;99.90;;;;;;6155039;23;20428;-73
2023/11/21 05:55:07;;;;;;;1172.90;840.67;;;7.60;99.90;;;;;;6154723;23;20726;-73
2023/11/21 05:57:34;;;;;;;1173.90;843.70;;;7.60;99.90;;;;;;6154273;23;20428;-72
2023/11/21 06:00:02;;;;;;;1169.00;837.90;;;7.70;99.90;;;;;;6154277;23;20920;-72
2023/11/21 06:02:30;;;;;;;1189.27;854.00;;;7.70;99.90;;;;;;6154669;23;20478;-72
2023/11/21 06:04:57;;;;;;;1179.67;836.13;;;7.70;99.90;;;;;;6154912;23;20413;-73
2023/11/21 06:07:25;;;;;;;1172.23;831.57;;;7.70;99.90;;;;;;6154578;23;20413;-72
2023/11/21 06:09:52;;;;;;;1172.73;832.00;;;7.70;99.90;;;;;;6154404;23;20933;-72
2023/11/21 06:12:20;;;;;;;1172.07;827.13;;;7.70;99.90;;;;;;6154756;23;20444;-72
2023/11/21 06:14:47;;;;;;;1177.63;834.10;;;7.70;99.90;;;;;;6154819;23;20412;-73
2023/11/21 06:17:14;;;;;;;1163.03;822.47;;;7.70;99.90;;;;;;6154505;23;20419;-72
2023/11/21 06:19:41;;;;;;;1158.63;827.63;;;7.70;99.90;;;;;;6154648;23;20784;-72
2023/11/21 06:22:09;;;;;;;1177.17;826.67;;;7.70;99.90;;;;;;6154577;23;20416;-72
2023/11/21 06:24:37;;;;;;;1182.47;817.53;;;7.80;99.90;;;;;;6154402;23;20410;-73
2023/11/21 06:27:05;;;;;;;1204.80;831.80;;;7.80;99.90;;;;;;6154516;23;20420;-72
2023/11/21 06:29:32;;;;;;;1211.03;837.40;;;7.90;99.90;;;;;;6154235;23;20509;-73
2023/11/21 06:31:59;;;;;;;1198.90;830.30;;;7.90;99.90;;;;;;6154843;23;20421;-72
2023/11/21 06:34:27;;;;;;;1217.83;830.70;;;8.00;99.90;;;;;;6154305;23;20994;-73
2023/11/21 06:36:54;;;;;;;1196.77;852.63;;;8.00;99.90;;;;;;6154895;23;20412;-72
2023/11/21 06:39:22;;;;;;;1212.53;865.63;;;8.00;99.90;;;;;;6154218;23;20909;-73
2023/11/21 06:41:50;;;;;;;1206.40;853.10;;;8.10;99.90;;;;;;6154811;23;20489;-72
2023/11/21 06:44:17;;;;;;;1232.93;869.73;;;8.10;99.90;;;;;;6154363;23;20552;-72
2023/11/21 06:46:44;;;;;;;1200.87;862.40;;;8.10;99.90;;;;;;6154429;23;20939;-73
2023/11/21 06:49:12;;;;;;;1209.73;852.20;;;8.20;99.90;;;;;;6154623;23;20451;-72
2023/11/21 06:51:39;;;;;;;1212.10;875.33;;;8.20;99.90;;;;;;6154444;23;20409;-72
2023/11/21 06:54:07;;;;;;;1217.30;865.07;;;8.20;99.90;;;;;;6154626;23;20472;-72
2023/11/21 06:56:34;;;;;;;1205.60;866.60;;;8.20;99.90;;;;;;6154897;23;20453;-72
2023/11/21 06:59:03;;;;;;;1194.27;865.63;;;8.20;99.90;;;;;;6155932;23;20488;-72
2023/11/21 07:01:29;;;;;;;1196.30;878.60;;;8.20;99.90;;;;;;6156638;23;20414;-72
2023/11/21 07:03:56;;;;;;;1195.53;867.17;;;8.20;99.90;;;;;;6156530;23;20481;-72
2023/11/21 07:06:23;;;;;;;1195.37;865.53;;;8.20;99.90;;;;;;6156000;23;20890;-72
2023/11/21 07:08:50;;;;;;;1203.60;864.30;;;8.20;99.90;;;;;;6156003;23;20416;-72
2023/11/21 07:11:17;;;;;;;1180.90;871.50;;;8.10;99.90;;;;;;6156347;23;20796;-72
2023/11/21 07:13:44;;;;;;;1190.00;869.20;;;8.10;99.90;;;;;;6156449;23;20527;-72
2023/11/21 07:16:12;;;;;;;1162.20;852.80;;;8.00;99.90;;;;;;6155772;23;20799;-72
2023/11/21 07:18:40;;;;;;;1138.07;840.40;;;8.00;99.90;;;;;;6154625;23;20452;-72
2023/11/21 07:21:08;;;;;;;1148.30;860.53;;;8.00;99.90;;;;;;6156078;23;20409;-72
2023/11/21 07:23:36;;;;;;;1151.47;853.37;;;8.00;99.90;;;;;;6155465;23;20442;-72
2023/11/21 07:26:03;;;;;;;1188.30;844.40;;;8.00;99.90;;;;;;6155512;23;20424;-72
2023/11/21 07:28:31;;;;;;;1158.23;844.20;;;8.10;99.90;;;;;;6155633;23;20411;-72
2023/11/21 07:30:59;;;;;;;1169.70;839.00;;;8.10;99.90;;;;;;6156122;23;20409;-72
2023/11/21 07:33:27;;;;;;;1158.13;851.57;;;8.10;99.90;;;;;;6155601;23;20909;-72
2023/11/21 07:35:54;;;;;;;1158.97;859.27;;;8.10;99.90;;;;;;6156104;23;20498;-73
2023/11/21 07:38:21;;;;;;;1167.83;858.10;;;8.20;99.90;;;;;;6155686;23;20410;-72
2023/11/21 07:40:48;;;;;;;1161.00;867.33;;;8.20;99.90;;;;;;6156052;23;20452;-72
2023/11/21 07:43:15;;;;;;;1155.20;854.53;;;8.30;99.90;;;;;;6155789;23;20415;-73
2023/11/21 07:45:42;;;;;;;1161.63;863.47;;;8.30;99.90;;;;;;6156295;23;20748;-72
2023/11/21 07:48:09;;;;;;;1143.33;855.50;;;8.30;99.90;;;;;;6156284;23;20416;-72
2023/11/21 07:50:37;;;;;;;1177.90;857.50;;;8.30;99.90;;;;;;6155796;23;20503;-72
2023/11/21 07:53:05;;;;;;;1165.70;857.90;;;8.30;99.90;;;;;;6156158;23;20453;-72
2023/11/21 07:55:33;;;;;;;1155.83;849.50;;;8.40;99.90;;;;;;6155741;23;20499;-72
2023/11/21 07:57:59;;;;;;;1147.20;853.37;;;8.40;99.90;;;;;;6156355;23;20420;-72
2023/11/21 08:00:29;;;;;;;1148.83;848.43;;;8.40;99.90;;;;;;6156230;23;20468;-72
2023/11/21 08:02:56;;;;;;;1135.67;826.03;;;8.50;99.90;;;;;;6155995;23;20445;-72
2023/11/21 08:05:23;;;;;;;1133.50;843.30;;;8.50;99.90;;;;;;6156050;23;20716;-72
2023/11/21 08:07:52;;;;;;;1139.93;835.37;;;8.50;99.90;;;;;;6155524;23;20415;-72
2023/11/21 08:10:18;;;;;;;1122.00;856.13;;;8.50;99.90;;;;;;6155842;23;20496;-72
2023/11/21 08:12:46;;;;;;;1104.77;851.97;;;8.50;99.90;;;;;;6155909;23;20415;-72
2023/11/21 08:15:13;;;;;;;1127.50;857.00;;;8.50;99.90;;;;;;6154122;23;20492;-72
2023/11/21 08:17:40;;;;;;;1105.83;847.20;;;8.50;99.90;;;;;;6155701;23;20491;-72
2023/11/21 08:20:08;;;;;;;1094.07;854.40;;;8.60;99.90;;;;;;6155381;23;20490;-72
2023/11/21 08:22:35;;;;;;;1082.93;827.23;;;8.60;99.90;;;;;;6155039;23;20483;-72
2023/11/21 08:25:04;;;;;;;1103.00;842.30;;;8.60;99.90;;;;;;6155103;23;20466;-72
2023/11/21 08:27:31;;;;;;;1095.10;838.70;;;8.70;99.90;;;;;;6154959;23;20410;-72
2023/11/21 08:29:58;;;;;;;1074.13;830.93;;;8.70;99.90;;;;;;6154437;23;20978;-72
2023/11/21 08:32:25;;;;;;;1070.53;826.60;;;8.80;99.90;;;;;;6154403;23;20420;-71
2023/11/21 08:34:52;;;;;;;1066.70;819.73;;;8.90;99.90;;;;;;6154229;23;20438;-71
2023/11/21 08:37:19;;;;;;;1059.23;830.00;;;8.90;99.90;;;;;;6155233;23;20489;-71
2023/11/21 08:39:46;;;;;;;1041.60;829.80;;;9.00;99.90;;;;;;6154983;23;20412;-71
2023/11/21 08:42:14;;;;;;;1033.37;828.07;;;9.10;99.90;;;;;;6154880;23;20492;-71
2023/11/21 08:44:41;;;;;;;1030.27;827.73;;;9.20;99.90;;;;;;6155018;23;20437;-71
2023/11/21 08:47:08;;;;;;;1012.70;825.50;;;9.30;99.90;;;;;;6155335;23;20498;-71
2023/11/21 08:49:35;;;;;;;983.67;830.03;;;9.30;99.90;;;;;;6153371;23;20420;-71
2023/11/21 08:52:02;;;;;;;928.00;827.75;;;9.40;99.90;;;;;;6153194;23;20413;-72
2023/11/21 08:54:29;;;;;;;926.07;835.80;;;9.40;99.90;;;;;;6154057;23;20192;-72
2023/11/21 08:56:57;;;;;;;920.83;832.43;;;9.40;99.90;;;;;;6154378;23;20423;-71
2023/11/21 08:59:26;;;;;;;933.00;845.60;;;9.40;99.90;;;;;;6153840;23;20476;-72
2023/11/21 09:01:52;;;;;;;932.67;843.83;;;9.40;99.90;;;;;;6154374;23;20420;-72
2023/11/21 09:04:19;;;;;;;930.67;842.87;;;9.40;99.90;;;;;;6154961;23;20801;-72
2023/11/21 09:06:46;;;;;;;935.47;851.90;;;9.50;99.90;;;;;;6155132;23;20489;-72
2023/11/21 09:09:13;;;;;;;923.40;842.93;;;9.50;99.90;;;;;;6155045;23;20422;-72
2023/11/21 09:11:40;;;;;;;923.47;844.07;;;9.50;99.90;;;;;;6155386;23;20413;-72
2023/11/21 09:14:08;;;;;;;922.07;840.80;;;9.40;99.90;;;;;;6155191;23;20528;-72
2023/11/21 09:16:36;;;;;;;924.80;841.73;;;9.50;99.90;;;;;;6154989;23;20439;-72
2023/11/21 09:19:05;;;;;;;926.13;848.50;;;9.60;99.90;;;;;;6154405;23;20418;-72
2023/11/21 09:21:32;;;;;;;917.33;842.83;;;9.60;99.90;;;;;;6155228;23;20410;-72
2023/11/21 09:23:59;;;;;;;924.53;849.67;;;9.70;99.90;;;;;;6154674;23;20408;-71
2023/11/21 09:26:26;;;;;;;927.57;855.03;;;9.70;99.90;;;;;;6155267;23;20492;-71
2023/11/21 09:28:53;;;;;;;935.77;864.57;;;9.70;99.90;;;;;;6153483;23;20412;-71
2023/11/21 09:31:22;;;;;;;930.00;860.93;;;9.70;99.90;;;;;;6154608;23;20497;-71
2023/11/21 09:33:50;;;;;;;929.63;859.00;;;9.70;99.90;;;;;;6154721;23;20754;-71
2023/11/21 09:36:18;;;;;;;919.43;849.90;;;9.70;99.90;;;;;;6154005;23;20920;-71
2023/11/21 09:38:45;;;;;;;926.07;856.40;;;9.70;99.90;;;;;;6153847;23;20978;-71
2023/11/21 09:41:21;;;;;;;934.07;863.77;;;9.60;99.90;;;;;;6155110;23;20806;-71
2023/11/21 09:43:52;;;;;;;915.37;847.77;;;9.60;99.90;;;;;;6154580;23;20430;-71
2023/11/21 09:46:22;;;;;;;922.77;853.47;;;9.60;99.90;;;;;;6154319;23;20878;-71
2023/11/21 09:48:52;;;;;;;913.83;844.97;;;9.70;99.90;;;;;;6154978;23;20419;-71
2023/11/21 09:51:22;;;;;;;909.37;841.20;;;9.80;99.90;;;;;;6154966;23;20398;-71
2023/11/21 09:53:52;;;;;;;913.00;844.20;;;9.80;99.90;;;;;;6154822;23;20838;-71
2023/11/21 09:56:23;;;;;;;906.47;840.50;;;9.90;99.90;;;;;;6154378;23;20429;-71
2023/11/21 09:58:53;;;;;;;902.23;837.23;;;10.00;99.90;;;;;;6154780;23;20454;-71
2023/11/21 10:01:21;;;;;;;901.37;838.17;;;10.20;99.90;;;;;;6154839;23;20499;-71
2023/11/21 10:03:50;;;;;;;868.33;810.67;;;10.30;99.90;;;;;;6154481;23;20437;-71
2023/11/21 10:06:19;;;;;;;844.07;790.27;;;10.50;99.90;;;;;;6154823;23;20430;-71
2023/11/21 10:08:48;;;;;;;844.77;791.47;;;10.60;99.90;;;;;;6154545;23;20882;-71
2023/11/21 10:11:18;;;;;;;843.57;790.70;;;10.70;99.90;;;;;;6154764;23;20413;-71
2023/11/21 10:13:47;;;;;;;758.23;715.60;;;10.80;99.90;;;;;;6154650;23;20414;-71
2023/11/21 10:16:21;;;;;;;791.20;745.27;;;10.70;99.90;;;;;;6154767;23;20499;-71
2023/11/21 10:18:54;;;;;;;768.03;725.83;;;10.70;99.90;;;;;;6154314;23;20403;-71
2023/11/21 10:21:20;;;;;;;735.83;697.53;;;10.70;99.90;;;;;;6154882;23;20504;-71
2023/11/21 10:23:48;;;;;;;671.00;636.47;;;10.80;99.90;;;;;;6154918;23;20444;-71
2023/11/21 10:26:16;;;;;;;626.60;595.97;;;10.80;99.90;;;;;;6154723;23;20802;-71
2023/11/21 10:28:56;;;;;;;519.63;495.73;;;10.90;99.90;;;;;;6154284;23;20882;-71
2023/11/21 10:31:24;;;;;;;451.80;430.67;;;10.90;99.90;;;;;;6155293;23;20739;-71
2023/11/21 10:33:53;;;;;;;386.73;370.53;;;10.80;99.90;;;;;;6156679;23;20417;-71
2023/11/21 10:36:29;;;;;;;499.67;477.63;;;10.90;99.90;;;;;;6156755;23;20487;-71
2023/11/21 10:38:57;;;;;;;518.93;494.60;;;10.80;99.90;;;;;;6156197;23;20484;-71
2023/11/21 10:41:25;;;;;;;422.30;404.13;;;11.00;99.90;;;;;;6156264;23;20417;-71
2023/11/21 10:43:55;;;;;;;397.87;380.07;;;11.00;99.90;;;;;;6156735;23;20417;-71
2023/11/21 10:46:23;;;;;;;341.13;325.47;;;11.00;99.90;;;;;;6156703;23;20771;-71
2023/11/21 10:48:57;;;;;;;358.20;342.20;;;11.00;99.90;;;;;;6155950;23;20416;-71
2023/11/21 10:51:25;;;;;;;398.43;382.07;;;10.90;99.90;;;;;;6156553;23;20463;-71
2023/11/21 10:53:52;;;;;;;392.90;376.13;;;11.10;99.90;;;;;;6156516;23;20416;-71
2023/11/21 10:56:21;;;;;;;324.93;310.43;;;11.10;99.90;;;;;;6156126;23;20479;-71
2023/11/21 10:58:50;;;;;;;297.97;284.67;;;11.10;99.90;;;;;;6156007;23;20415;-71
2023/11/21 11:01:21;;;;;;;299.67;285.77;;;11.10;99.90;;;;;;6156075;23;20441;-71
2023/11/21 11:03:48;;;;;;;289.50;277.40;;;11.00;99.90;;;;;;6156469;23;20447;-71
2023/11/21 11:06:17;;;;;;;321.97;308.00;;;11.00;99.90;;;;;;6156282;23;20410;-71
2023/11/21 11:08:45;;;;;;;341.90;326.90;;;11.00;99.90;;;;;;6156321;23;20413;-71
2023/11/21 11:11:13;;;;;;;326.60;312.87;;;11.00;99.90;;;;;;6156318;23;20492;-71
2023/11/21 11:13:45;;;;;;;373.33;357.33;;;11.00;99.90;;;;;;6156100;23;20493;-71
2023/11/21 11:16:17;;;;;;;338.87;324.37;;;11.10;99.90;;;;;;6155971;23;20858;-71
2023/11/21 11:18:46;;;;;;;313.37;299.87;;;11.10;99.90;;;;;;6156066;23;20453;-71
2023/11/21 11:21:25;;;;;;;293.10;281.17;;;11.10;99.90;;;;;;6156237;23;20414;-71
2023/11/21 11:24:14;;;;;;;191.27;181.77;;;11.00;99.90;;;;;;6156023;23;20934;-71
2023/11/21 11:26:51;;;;;;;275.20;263.17;;;10.80;99.90;;;;;;6165836;23;20451;-72
2023/11/21 11:29:29;;;;;;;315.40;302.33;;;10.90;99.90;;;;;;6156144;23;20771;-72
2023/11/21 11:32:06;;;;;;;341.70;327.17;;;10.70;99.90;;;;;;6156101;23;20893;-71
2023/11/21 11:34:38;;;;;;;379.50;363.83;;;10.70;99.90;;;;;;6156009;23;20424;-70
2023/11/21 11:37:08;;;;;;;383.40;366.70;;;10.70;99.90;;;;;;6156432;23;20728;-71
2023/11/21 11:39:37;;;;;;;386.87;370.60;;;10.70;99.90;;;;;;6156207;23;20402;-71
2023/11/21 11:42:08;;;;;;;366.40;350.17;;;10.70;99.90;;;;;;6156148;23;20441;-71
2023/11/21 11:44:52;;;;;;;417.60;399.53;;;10.60;99.90;;;;;;6156229;23;20790;-71
2023/11/21 11:47:25;;;;;;;440.97;421.37;;;10.60;99.90;;;;;;6156275;23;20398;-71
2023/11/21 11:50:04;;;;;;;471.60;448.37;;;10.50;99.90;;;;;;6155723;23;20416;-71
2023/11/21 11:52:37;;;;;;;498.83;473.70;;;10.60;99.90;;;;;;6156061;23;20452;-71
2023/11/21 11:55:04;;;;;;;493.90;469.97;;;10.50;99.90;;;;;;6155597;23;20779;-71
2023/11/21 11:57:32;;;;;;;519.53;493.77;;;10.50;99.90;;;;;;6156083;23;20435;-71
2023/11/21 12:00:11;;;;;;;492.50;468.80;;;10.40;99.90;;;;;;6154313;23;20412;-71
2023/11/21 12:02:39;;;;;;;503.17;480.00;;;10.40;99.90;;;;;;6155594;23;20416;-71
2023/11/21 12:05:11;;;;;;;481.60;459.60;;;10.40;99.90;;;;;;6155484;23;20716;-71
2023/11/21 12:07:47;;;;;;;457.20;436.60;;;10.40;99.90;;;;;;6155709;23;20440;-71
2023/11/21 12:10:17;;;;;;;446.43;425.93;;;10.30;99.90;;;;;;6154811;23;20499;-71
2023/11/21 12:12:46;;;;;;;454.30;435.00;;;10.30;99.90;;;;;;6154760;23;20412;-71